sensor_id;sensor_type;location;lat;lon;timestamp;P1;durP1;ratioP1;P2;durP2;ratioP2
36253;SDS011;22291;52.250;21.228;2024-03-25T00:01:20;26.80;;;16.90;;
36253;SDS011;22291;52.250;21.228;2024-03-25T00:03:46;27.30;;;14.60;;
36253;SDS011;22291;52.250;21.228;2024-03-25T00:06:13;20.82;;;11.53;;
36253;SDS011;22291;52.250;21.228;2024-03-25T00:08:39;20.97;;;13.65;;
36253;SDS011;22291;52.250;21.228;2024-03-25T00:11:06;22.55;;;13.95;;
36253;SDS011;22291;52.250;21.228;2024-03-25T00:13:33;18.67;;;12.45;;
36253;SDS011;22291;52.250;21.228;2024-03-25T00:16:00;23.57;;;15.28;;
36253;SDS011;22291;52.250;21.228;2024-03-25T00:18:26;21.12;;;13.85;;
36253;SDS011;22291;52.250;21.228;2024-03-25T00:20:52;20.05;;;12.80;;
36253;SDS011;22291;52.250;21.228;2024-03-25T00:23:19;19.37;;;12.07;;
36253;SDS011;22291;52.250;21.228;2024-03-25T00:25:47;19.27;;;13.45;;
36253;SDS011;22291;52.250;21.228;2024-03-25T00:28:13;20.57;;;13.03;;
36253;SDS011;22291;52.250;21.228;2024-03-25T00:30:40;20.55;;;12.03;;
36253;SDS011;22291;52.250;21.228;2024-03-25T00:33:06;22.95;;;13.13;;
36253;SDS011;22291;52.250;21.228;2024-03-25T00:35:33;23.80;;;13.80;;
36253;SDS011;22291;52.250;21.228;2024-03-25T00:38:00;21.33;;;14.13;;
36253;SDS011;22291;52.250;21.228;2024-03-25T00:40:27;28.27;;;15.35;;
36253;SDS011;22291;52.250;21.228;2024-03-25T00:42:53;25.60;;;15.20;;
36253;SDS011;22291;52.250;21.228;2024-03-25T00:45:20;21.27;;;14.45;;
36253;SDS011;22291;52.250;21.228;2024-03-25T00:47:47;24.00;;;15.48;;
36253;SDS011;22291;52.250;21.228;2024-03-25T00:50:14;27.87;;;16.00;;
36253;SDS011;22291;52.250;21.228;2024-03-25T00:52:40;23.80;;;13.85;;
36253;SDS011;22291;52.250;21.228;2024-03-25T00:55:07;24.90;;;15.95;;
36253;SDS011;22291;52.250;21.228;2024-03-25T00:57:34;25.90;;;16.17;;
36253;SDS011;22291;52.250;21.228;2024-03-25T01:00:01;25.00;;;15.78;;
36253;SDS011;22291;52.250;21.228;2024-03-25T01:02:30;25.87;;;15.73;;
36253;SDS011;22291;52.250;21.228;2024-03-25T01:04:57;26.52;;;15.83;;
36253;SDS011;22291;52.250;21.228;2024-03-25T01:07:25;25.25;;;14.50;;
36253;SDS011;22291;52.250;21.228;2024-03-25T01:09:52;25.15;;;16.17;;
36253;SDS011;22291;52.250;21.228;2024-03-25T01:12:19;23.77;;;15.88;;
36253;SDS011;22291;52.250;21.228;2024-03-25T01:14:46;25.65;;;16.35;;
36253;SDS011;22291;52.250;21.228;2024-03-25T01:17:12;28.98;;;16.15;;
36253;SDS011;22291;52.250;21.228;2024-03-25T01:19:39;26.00;;;16.67;;
36253;SDS011;22291;52.250;21.228;2024-03-25T01:22:05;27.67;;;16.52;;
36253;SDS011;22291;52.250;21.228;2024-03-25T01:24:32;25.57;;;15.60;;
36253;SDS011;22291;52.250;21.228;2024-03-25T01:26:59;26.82;;;15.90;;
36253;SDS011;22291;52.250;21.228;2024-03-25T01:29:26;25.92;;;15.60;;
36253;SDS011;22291;52.250;21.228;2024-03-25T01:31:53;28.30;;;16.97;;
36253;SDS011;22291;52.250;21.228;2024-03-25T01:34:20;28.60;;;16.27;;
36253;SDS011;22291;52.250;21.228;2024-03-25T01:36:46;27.60;;;16.55;;
36253;SDS011;22291;52.250;21.228;2024-03-25T01:39:14;29.95;;;16.45;;
36253;SDS011;22291;52.250;21.228;2024-03-25T01:41:41;25.95;;;16.25;;
36253;SDS011;22291;52.250;21.228;2024-03-25T01:44:07;25.80;;;16.30;;
36253;SDS011;22291;52.250;21.228;2024-03-25T01:46:36;26.05;;;16.62;;
36253;SDS011;22291;52.250;21.228;2024-03-25T01:49:04;28.25;;;15.85;;
36253;SDS011;22291;52.250;21.228;2024-03-25T01:51:33;27.05;;;15.38;;
36253;SDS011;22291;52.250;21.228;2024-03-25T01:54:01;27.22;;;15.50;;
36253;SDS011;22291;52.250;21.228;2024-03-25T01:56:30;27.90;;;14.95;;
36253;SDS011;22291;52.250;21.228;2024-03-25T01:58:59;25.40;;;16.25;;
36253;SDS011;22291;52.250;21.228;2024-03-25T02:01:27;28.02;;;16.05;;
36253;SDS011;22291;52.250;21.228;2024-03-25T02:03:56;24.50;;;15.38;;
36253;SDS011;22291;52.250;21.228;2024-03-25T02:06:24;26.42;;;15.88;;
36253;SDS011;22291;52.250;21.228;2024-03-25T02:08:54;25.97;;;15.95;;
36253;SDS011;22291;52.250;21.228;2024-03-25T02:11:24;31.97;;;17.92;;
36253;SDS011;22291;52.250;21.228;2024-03-25T02:13:51;29.32;;;16.70;;
36253;SDS011;22291;52.250;21.228;2024-03-25T02:16:18;24.63;;;15.23;;
36253;SDS011;22291;52.250;21.228;2024-03-25T02:18:46;27.60;;;17.30;;
36253;SDS011;22291;52.250;21.228;2024-03-25T02:21:13;27.22;;;16.42;;
36253;SDS011;22291;52.250;21.228;2024-03-25T02:23:40;28.77;;;16.87;;
36253;SDS011;22291;52.250;21.228;2024-03-25T02:26:10;28.17;;;16.17;;
36253;SDS011;22291;52.250;21.228;2024-03-25T02:28:37;32.67;;;18.52;;
36253;SDS011;22291;52.250;21.228;2024-03-25T02:31:04;31.55;;;17.02;;
36253;SDS011;22291;52.250;21.228;2024-03-25T02:33:30;30.50;;;17.37;;
36253;SDS011;22291;52.250;21.228;2024-03-25T02:35:57;31.25;;;17.95;;
36253;SDS011;22291;52.250;21.228;2024-03-25T02:38:24;29.80;;;17.57;;
36253;SDS011;22291;52.250;21.228;2024-03-25T02:40:51;30.82;;;17.65;;
36253;SDS011;22291;52.250;21.228;2024-03-25T02:43:18;29.27;;;16.87;;
36253;SDS011;22291;52.250;21.228;2024-03-25T02:45:47;31.67;;;17.00;;
36253;SDS011;22291;52.250;21.228;2024-03-25T02:48:14;27.95;;;16.90;;
36253;SDS011;22291;52.250;21.228;2024-03-25T02:50:41;29.00;;;17.35;;
36253;SDS011;22291;52.250;21.228;2024-03-25T02:53:08;33.58;;;16.85;;
36253;SDS011;22291;52.250;21.228;2024-03-25T02:55:34;29.15;;;16.05;;
36253;SDS011;22291;52.250;21.228;2024-03-25T02:58:01;32.73;;;17.48;;
36253;SDS011;22291;52.250;21.228;2024-03-25T03:00:28;27.48;;;16.02;;
36253;SDS011;22291;52.250;21.228;2024-03-25T03:02:55;28.20;;;17.05;;
36253;SDS011;22291;52.250;21.228;2024-03-25T03:05:21;28.80;;;15.45;;
36253;SDS011;22291;52.250;21.228;2024-03-25T03:07:48;31.45;;;17.02;;
36253;SDS011;22291;52.250;21.228;2024-03-25T03:10:15;29.30;;;17.60;;
36253;SDS011;22291;52.250;21.228;2024-03-25T03:12:41;31.68;;;17.82;;
36253;SDS011;22291;52.250;21.228;2024-03-25T03:15:08;30.17;;;17.92;;
36253;SDS011;22291;52.250;21.228;2024-03-25T03:17:35;29.98;;;16.77;;
36253;SDS011;22291;52.250;21.228;2024-03-25T03:20:02;24.90;;;16.62;;
36253;SDS011;22291;52.250;21.228;2024-03-25T03:22:31;28.95;;;16.52;;
36253;SDS011;22291;52.250;21.228;2024-03-25T03:24:58;25.32;;;15.85;;
36253;SDS011;22291;52.250;21.228;2024-03-25T03:27:25;30.32;;;16.70;;
36253;SDS011;22291;52.250;21.228;2024-03-25T03:29:51;31.07;;;17.15;;
36253;SDS011;22291;52.250;21.228;2024-03-25T03:32:19;28.30;;;16.37;;
36253;SDS011;22291;52.250;21.228;2024-03-25T03:34:46;31.50;;;18.15;;
36253;SDS011;22291;52.250;21.228;2024-03-25T03:37:13;26.15;;;16.12;;
36253;SDS011;22291;52.250;21.228;2024-03-25T03:39:40;32.67;;;16.95;;
36253;SDS011;22291;52.250;21.228;2024-03-25T03:42:06;30.50;;;16.85;;
36253;SDS011;22291;52.250;21.228;2024-03-25T03:44:34;28.17;;;16.42;;
36253;SDS011;22291;52.250;21.228;2024-03-25T03:47:00;26.87;;;16.42;;
36253;SDS011;22291;52.250;21.228;2024-03-25T03:49:28;29.07;;;16.50;;
36253;SDS011;22291;52.250;21.228;2024-03-25T03:51:55;29.35;;;16.87;;
36253;SDS011;22291;52.250;21.228;2024-03-25T03:54:23;26.70;;;17.23;;
36253;SDS011;22291;52.250;21.228;2024-03-25T03:56:50;28.40;;;17.40;;
36253;SDS011;22291;52.250;21.228;2024-03-25T03:59:17;30.15;;;16.62;;
36253;SDS011;22291;52.250;21.228;2024-03-25T04:01:43;24.45;;;15.58;;
36253;SDS011;22291;52.250;21.228;2024-03-25T04:04:10;27.50;;;16.42;;
36253;SDS011;22291;52.250;21.228;2024-03-25T04:06:37;29.00;;;16.67;;
36253;SDS011;22291;52.250;21.228;2024-03-25T04:09:09;25.30;;;16.53;;
36253;SDS011;22291;52.250;21.228;2024-03-25T04:11:36;30.97;;;17.48;;
36253;SDS011;22291;52.250;21.228;2024-03-25T04:14:02;29.92;;;17.77;;
36253;SDS011;22291;52.250;21.228;2024-03-25T04:16:29;29.10;;;17.20;;
36253;SDS011;22291;52.250;21.228;2024-03-25T04:18:56;26.23;;;16.67;;
36253;SDS011;22291;52.250;21.228;2024-03-25T04:21:23;27.10;;;17.67;;
36253;SDS011;22291;52.250;21.228;2024-03-25T04:23:50;29.87;;;17.87;;
36253;SDS011;22291;52.250;21.228;2024-03-25T04:26:16;32.00;;;17.05;;
36253;SDS011;22291;52.250;21.228;2024-03-25T04:28:44;30.35;;;17.32;;
36253;SDS011;22291;52.250;21.228;2024-03-25T04:31:10;31.70;;;18.42;;
36253;SDS011;22291;52.250;21.228;2024-03-25T04:33:38;29.20;;;17.40;;
36253;SDS011;22291;52.250;21.228;2024-03-25T04:36:05;30.48;;;17.07;;
36253;SDS011;22291;52.250;21.228;2024-03-25T04:38:32;31.02;;;17.95;;
36253;SDS011;22291;52.250;21.228;2024-03-25T04:40:59;27.30;;;16.70;;
36253;SDS011;22291;52.250;21.228;2024-03-25T04:43:26;32.03;;;18.67;;
36253;SDS011;22291;52.250;21.228;2024-03-25T04:45:52;30.32;;;18.25;;
36253;SDS011;22291;52.250;21.228;2024-03-25T04:48:19;32.08;;;17.95;;
36253;SDS011;22291;52.250;21.228;2024-03-25T04:50:45;33.02;;;19.55;;
36253;SDS011;22291;52.250;21.228;2024-03-25T04:53:12;32.23;;;19.05;;
36253;SDS011;22291;52.250;21.228;2024-03-25T04:55:39;26.30;;;17.57;;
36253;SDS011;22291;52.250;21.228;2024-03-25T04:58:05;29.00;;;17.92;;
36253;SDS011;22291;52.250;21.228;2024-03-25T05:00:32;31.42;;;18.70;;
36253;SDS011;22291;52.250;21.228;2024-03-25T05:02:58;33.42;;;19.25;;
36253;SDS011;22291;52.250;21.228;2024-03-25T05:05:25;34.10;;;18.67;;
36253;SDS011;22291;52.250;21.228;2024-03-25T05:07:52;30.65;;;18.02;;
36253;SDS011;22291;52.250;21.228;2024-03-25T05:10:20;28.73;;;18.30;;
36253;SDS011;22291;52.250;21.228;2024-03-25T05:12:46;31.37;;;18.80;;
36253;SDS011;22291;52.250;21.228;2024-03-25T05:15:15;32.70;;;19.10;;
36253;SDS011;22291;52.250;21.228;2024-03-25T05:17:42;33.20;;;20.17;;
36253;SDS011;22291;52.250;21.228;2024-03-25T05:20:09;33.55;;;18.25;;
36253;SDS011;22291;52.250;21.228;2024-03-25T05:22:37;35.83;;;20.00;;
36253;SDS011;22291;52.250;21.228;2024-03-25T05:25:04;32.73;;;19.85;;
36253;SDS011;22291;52.250;21.228;2024-03-25T05:27:31;32.03;;;18.92;;
36253;SDS011;22291;52.250;21.228;2024-03-25T05:29:57;29.45;;;18.20;;
36253;SDS011;22291;52.250;21.228;2024-03-25T05:32:25;37.42;;;19.57;;
36253;SDS011;22291;52.250;21.228;2024-03-25T05:34:52;29.65;;;17.77;;
36253;SDS011;22291;52.250;21.228;2024-03-25T05:37:19;31.40;;;19.50;;
36253;SDS011;22291;52.250;21.228;2024-03-25T05:39:45;32.67;;;18.92;;
36253;SDS011;22291;52.250;21.228;2024-03-25T05:42:12;31.55;;;19.87;;
36253;SDS011;22291;52.250;21.228;2024-03-25T05:44:38;36.48;;;20.30;;
36253;SDS011;22291;52.250;21.228;2024-03-25T05:47:05;32.93;;;19.20;;
36253;SDS011;22291;52.250;21.228;2024-03-25T05:49:32;32.03;;;20.02;;
36253;SDS011;22291;52.250;21.228;2024-03-25T05:51:59;35.65;;;20.37;;
36253;SDS011;22291;52.250;21.228;2024-03-25T05:54:25;32.55;;;19.60;;
36253;SDS011;22291;52.250;21.228;2024-03-25T05:56:52;33.40;;;20.50;;
36253;SDS011;22291;52.250;21.228;2024-03-25T05:59:18;35.75;;;20.55;;
36253;SDS011;22291;52.250;21.228;2024-03-25T06:01:45;33.48;;;21.52;;
36253;SDS011;22291;52.250;21.228;2024-03-25T06:04:12;40.65;;;21.65;;
36253;SDS011;22291;52.250;21.228;2024-03-25T06:06:38;32.53;;;20.30;;
36253;SDS011;22291;52.250;21.228;2024-03-25T06:09:05;35.35;;;21.23;;
36253;SDS011;22291;52.250;21.228;2024-03-25T06:11:33;34.43;;;21.30;;
36253;SDS011;22291;52.250;21.228;2024-03-25T06:13:59;38.75;;;21.62;;
36253;SDS011;22291;52.250;21.228;2024-03-25T06:16:26;38.10;;;21.82;;
36253;SDS011;22291;52.250;21.228;2024-03-25T06:18:53;33.38;;;20.95;;
36253;SDS011;22291;52.250;21.228;2024-03-25T06:21:20;35.25;;;21.90;;
36253;SDS011;22291;52.250;21.228;2024-03-25T06:23:48;29.18;;;20.25;;
36253;SDS011;22291;52.250;21.228;2024-03-25T06:26:14;34.35;;;21.73;;
36253;SDS011;22291;52.250;21.228;2024-03-25T06:28:41;39.83;;;21.62;;
36253;SDS011;22291;52.250;21.228;2024-03-25T06:31:08;33.67;;;20.17;;
36253;SDS011;22291;52.250;21.228;2024-03-25T06:33:53;28.38;;;19.27;;
36253;SDS011;22291;52.250;21.228;2024-03-25T06:36:38;30.57;;;18.85;;
36253;SDS011;22291;52.250;21.228;2024-03-25T06:39:05;33.28;;;20.27;;
36253;SDS011;22291;52.250;21.228;2024-03-25T06:41:31;28.73;;;18.27;;
36253;SDS011;22291;52.250;21.228;2024-03-25T06:43:59;28.47;;;18.73;;
36253;SDS011;22291;52.250;21.228;2024-03-25T06:46:25;30.85;;;17.55;;
36253;SDS011;22291;52.250;21.228;2024-03-25T06:48:52;26.15;;;17.15;;
36253;SDS011;22291;52.250;21.228;2024-03-25T06:51:19;27.42;;;16.60;;
36253;SDS011;22291;52.250;21.228;2024-03-25T06:53:46;28.70;;;17.42;;
36253;SDS011;22291;52.250;21.228;2024-03-25T06:56:13;27.27;;;16.75;;
36253;SDS011;22291;52.250;21.228;2024-03-25T06:58:39;26.80;;;16.80;;
36253;SDS011;22291;52.250;21.228;2024-03-25T07:01:08;25.65;;;16.70;;
36253;SDS011;22291;52.250;21.228;2024-03-25T07:03:37;29.32;;;15.72;;
36253;SDS011;22291;52.250;21.228;2024-03-25T07:06:05;26.62;;;16.40;;
36253;SDS011;22291;52.250;21.228;2024-03-25T07:08:31;27.93;;;16.10;;
36253;SDS011;22291;52.250;21.228;2024-03-25T07:10:59;25.35;;;15.60;;
36253;SDS011;22291;52.250;21.228;2024-03-25T07:13:25;23.57;;;14.87;;
36253;SDS011;22291;52.250;21.228;2024-03-25T07:15:52;25.57;;;15.78;;
36253;SDS011;22291;52.250;21.228;2024-03-25T07:18:18;27.30;;;14.78;;
36253;SDS011;22291;52.250;21.228;2024-03-25T07:20:46;22.35;;;14.05;;
36253;SDS011;22291;52.250;21.228;2024-03-25T07:23:14;22.10;;;14.30;;
36253;SDS011;22291;52.250;21.228;2024-03-25T07:25:40;26.45;;;15.00;;
36253;SDS011;22291;52.250;21.228;2024-03-25T07:28:06;21.70;;;14.20;;
36253;SDS011;22291;52.250;21.228;2024-03-25T07:30:33;23.00;;;13.93;;
36253;SDS011;22291;52.250;21.228;2024-03-25T07:32:59;19.50;;;13.00;;
36253;SDS011;22291;52.250;21.228;2024-03-25T07:35:26;18.55;;;11.68;;
36253;SDS011;22291;52.250;21.228;2024-03-25T07:37:52;19.65;;;11.73;;
36253;SDS011;22291;52.250;21.228;2024-03-25T07:40:19;17.50;;;11.88;;
36253;SDS011;22291;52.250;21.228;2024-03-25T07:42:47;19.20;;;12.25;;
36253;SDS011;22291;52.250;21.228;2024-03-25T07:45:14;16.12;;;10.98;;
36253;SDS011;22291;52.250;21.228;2024-03-25T07:47:41;17.67;;;11.40;;
36253;SDS011;22291;52.250;21.228;2024-03-25T07:50:08;17.73;;;10.78;;
36253;SDS011;22291;52.250;21.228;2024-03-25T07:52:36;17.30;;;11.10;;
36253;SDS011;22291;52.250;21.228;2024-03-25T07:55:04;18.92;;;10.58;;
36253;SDS011;22291;52.250;21.228;2024-03-25T07:57:32;14.25;;;9.53;;
36253;SDS011;22291;52.250;21.228;2024-03-25T07:59:59;16.23;;;10.00;;
36253;SDS011;22291;52.250;21.228;2024-03-25T08:02:25;13.50;;;9.43;;
36253;SDS011;22291;52.250;21.228;2024-03-25T08:04:51;12.90;;;9.08;;
36253;SDS011;22291;52.250;21.228;2024-03-25T08:07:18;14.65;;;9.20;;
36253;SDS011;22291;52.250;21.228;2024-03-25T08:09:44;12.00;;;8.55;;
36253;SDS011;22291;52.250;21.228;2024-03-25T08:12:11;15.45;;;9.33;;
36253;SDS011;22291;52.250;21.228;2024-03-25T08:14:37;12.53;;;7.87;;
36253;SDS011;22291;52.250;21.228;2024-03-25T08:17:03;12.78;;;7.95;;
36253;SDS011;22291;52.250;21.228;2024-03-25T08:19:30;13.78;;;7.00;;
36253;SDS011;22291;52.250;21.228;2024-03-25T08:21:57;12.18;;;7.55;;
36253;SDS011;22291;52.250;21.228;2024-03-25T08:24:23;11.20;;;7.95;;
36253;SDS011;22291;52.250;21.228;2024-03-25T08:26:49;71.37;;;66.53;;
36253;SDS011;22291;52.250;21.228;2024-03-25T08:32:54;76.50;;;71.27;;
36253;SDS011;22291;52.250;21.228;2024-03-25T08:35:20;73.72;;;68.75;;
36253;SDS011;22291;52.250;21.228;2024-03-25T08:37:46;75.55;;;70.32;;
36253;SDS011;22291;52.250;21.228;2024-03-25T08:40:13;72.27;;;67.05;;
36253;SDS011;22291;52.250;21.228;2024-03-25T08:42:39;11.43;;;7.72;;
36253;SDS011;22291;52.250;21.228;2024-03-25T08:45:06;13.25;;;7.85;;
36253;SDS011;22291;52.250;21.228;2024-03-25T08:47:33;10.70;;;7.28;;
36253;SDS011;22291;52.250;21.228;2024-03-25T08:50:00;13.90;;;7.42;;
36253;SDS011;22291;52.250;21.228;2024-03-25T08:52:26;11.90;;;7.72;;
36253;SDS011;22291;52.250;21.228;2024-03-25T08:54:53;10.95;;;7.53;;
36253;SDS011;22291;52.250;21.228;2024-03-25T08:57:19;12.82;;;8.68;;
36253;SDS011;22291;52.250;21.228;2024-03-25T08:59:45;11.88;;;8.40;;
36253;SDS011;22291;52.250;21.228;2024-03-25T09:02:12;12.25;;;8.35;;
36253;SDS011;22291;52.250;21.228;2024-03-25T09:04:39;10.25;;;7.80;;
36253;SDS011;22291;52.250;21.228;2024-03-25T09:07:05;13.00;;;7.90;;
36253;SDS011;22291;52.250;21.228;2024-03-25T09:09:31;11.85;;;6.70;;
36253;SDS011;22291;52.250;21.228;2024-03-25T09:12:16;10.82;;;7.40;;
36253;SDS011;22291;52.250;21.228;2024-03-25T09:14:42;12.65;;;7.40;;
36253;SDS011;22291;52.250;21.228;2024-03-25T09:17:08;10.72;;;6.45;;
36253;SDS011;22291;52.250;21.228;2024-03-25T09:19:35;17.65;;;13.48;;
36253;SDS011;22291;52.250;21.228;2024-03-25T09:22:01;11.75;;;7.12;;
36253;SDS011;22291;52.250;21.228;2024-03-25T09:24:27;12.05;;;7.30;;
36253;SDS011;22291;52.250;21.228;2024-03-25T09:26:53;8.73;;;5.55;;
36253;SDS011;22291;52.250;21.228;2024-03-25T09:29:20;10.05;;;5.45;;
36253;SDS011;22291;52.250;21.228;2024-03-25T09:31:46;7.62;;;4.53;;
36253;SDS011;22291;52.250;21.228;2024-03-25T09:34:12;8.53;;;5.50;;
36253;SDS011;22291;52.250;21.228;2024-03-25T09:36:38;7.85;;;5.28;;
36253;SDS011;22291;52.250;21.228;2024-03-25T09:39:06;10.38;;;5.55;;
36253;SDS011;22291;52.250;21.228;2024-03-25T09:41:34;80.75;;;75.47;;
36253;SDS011;22291;52.250;21.228;2024-03-25T09:44:05;81.75;;;76.17;;
36253;SDS011;22291;52.250;21.228;2024-03-25T09:46:32;80.03;;;74.55;;
36253;SDS011;22291;52.250;21.228;2024-03-25T09:49:00;77.92;;;72.50;;
36253;SDS011;22291;52.250;21.228;2024-03-25T09:51:28;12.53;;;8.08;;
36253;SDS011;22291;52.250;21.228;2024-03-25T09:53:55;8.55;;;5.30;;
36253;SDS011;22291;52.250;21.228;2024-03-25T09:56:21;9.05;;;5.05;;
36253;SDS011;22291;52.250;21.228;2024-03-25T09:58:48;6.15;;;4.78;;
36253;SDS011;22291;52.250;21.228;2024-03-25T10:01:14;7.47;;;5.15;;
36253;SDS011;22291;52.250;21.228;2024-03-25T10:03:41;8.53;;;4.80;;
36253;SDS011;22291;52.250;21.228;2024-03-25T10:06:07;7.72;;;4.65;;
36253;SDS011;22291;52.250;21.228;2024-03-25T10:08:35;4.87;;;4.22;;
36253;SDS011;22291;52.250;21.228;2024-03-25T10:11:03;7.17;;;4.37;;
36253;SDS011;22291;52.250;21.228;2024-03-25T10:13:29;9.08;;;4.92;;
36253;SDS011;22291;52.250;21.228;2024-03-25T10:15:55;9.08;;;5.05;;
36253;SDS011;22291;52.250;21.228;2024-03-25T10:18:22;8.85;;;5.10;;
36253;SDS011;22291;52.250;21.228;2024-03-25T10:20:51;6.50;;;5.17;;
36253;SDS011;22291;52.250;21.228;2024-03-25T10:23:25;9.63;;;5.40;;
36253;SDS011;22291;52.250;21.228;2024-03-25T10:25:52;6.72;;;4.78;;
36253;SDS011;22291;52.250;21.228;2024-03-25T10:28:20;7.87;;;3.98;;
36253;SDS011;22291;52.250;21.228;2024-03-25T10:30:46;6.85;;;5.10;;
36253;SDS011;22291;52.250;21.228;2024-03-25T10:33:13;8.80;;;4.80;;
36253;SDS011;22291;52.250;21.228;2024-03-25T10:35:40;7.05;;;4.92;;
36253;SDS011;22291;52.250;21.228;2024-03-25T10:38:07;7.55;;;5.25;;
36253;SDS011;22291;52.250;21.228;2024-03-25T10:43:08;5.83;;;5.20;;
36253;SDS011;22291;52.250;21.228;2024-03-25T10:45:45;7.53;;;4.95;;
36253;SDS011;22291;52.250;21.228;2024-03-25T10:48:27;6.03;;;4.50;;
36253;SDS011;22291;52.250;21.228;2024-03-25T10:50:56;9.95;;;5.53;;
36253;SDS011;22291;52.250;21.228;2024-03-25T10:53:24;6.42;;;4.92;;
36253;SDS011;22291;52.250;21.228;2024-03-25T10:55:53;6.83;;;4.92;;
36253;SDS011;22291;52.250;21.228;2024-03-25T10:58:22;8.83;;;4.50;;
36253;SDS011;22291;52.250;21.228;2024-03-25T11:00:50;6.37;;;4.70;;
36253;SDS011;22291;52.250;21.228;2024-03-25T11:03:20;8.70;;;5.00;;
36253;SDS011;22291;52.250;21.228;2024-03-25T11:05:49;6.85;;;4.20;;
36253;SDS011;22291;52.250;21.228;2024-03-25T11:08:16;11.12;;;4.97;;
36253;SDS011;22291;52.250;21.228;2024-03-25T11:10:44;7.72;;;4.80;;
36253;SDS011;22291;52.250;21.228;2024-03-25T11:13:14;7.12;;;4.95;;
36253;SDS011;22291;52.250;21.228;2024-03-25T11:15:44;8.03;;;5.47;;
36253;SDS011;22291;52.250;21.228;2024-03-25T11:18:16;7.35;;;5.85;;
36253;SDS011;22291;52.250;21.228;2024-03-25T11:20:46;11.30;;;6.58;;
36253;SDS011;22291;52.250;21.228;2024-03-25T11:23:13;9.10;;;6.97;;
36253;SDS011;22291;52.250;21.228;2024-03-25T11:25:40;11.20;;;7.60;;
36253;SDS011;22291;52.250;21.228;2024-03-25T11:28:10;10.82;;;8.30;;
36253;SDS011;22291;52.250;21.228;2024-03-25T11:30:37;9.93;;;7.95;;
36253;SDS011;22291;52.250;21.228;2024-03-25T11:33:05;11.95;;;7.50;;
36253;SDS011;22291;52.250;21.228;2024-03-25T11:35:36;8.03;;;5.35;;
36253;SDS011;22291;52.250;21.228;2024-03-25T11:38:05;7.62;;;5.58;;
36253;SDS011;22291;52.250;21.228;2024-03-25T11:40:31;6.92;;;6.00;;
36253;SDS011;22291;52.250;21.228;2024-03-25T11:42:58;6.62;;;5.17;;
36253;SDS011;22291;52.250;21.228;2024-03-25T11:45:25;13.95;;;6.00;;
36253;SDS011;22291;52.250;21.228;2024-03-25T11:47:51;6.10;;;4.85;;
36253;SDS011;22291;52.250;21.228;2024-03-25T11:50:21;8.05;;;5.47;;
36253;SDS011;22291;52.250;21.228;2024-03-25T11:55:18;7.60;;;5.17;;
36253;SDS011;22291;52.250;21.228;2024-03-25T11:57:45;6.42;;;5.67;;
36253;SDS011;22291;52.250;21.228;2024-03-25T12:00:12;10.20;;;6.22;;
36253;SDS011;22291;52.250;21.228;2024-03-25T12:02:43;8.50;;;6.53;;
36253;SDS011;22291;52.250;21.228;2024-03-25T12:05:11;6.28;;;5.67;;
36253;SDS011;22291;52.250;21.228;2024-03-25T12:07:38;11.35;;;5.67;;
36253;SDS011;22291;52.250;21.228;2024-03-25T12:10:05;7.65;;;5.87;;
36253;SDS011;22291;52.250;21.228;2024-03-25T12:12:52;11.22;;;5.80;;
36253;SDS011;22291;52.250;21.228;2024-03-25T12:15:19;6.42;;;5.20;;
36253;SDS011;22291;52.250;21.228;2024-03-25T12:17:47;5.67;;;4.83;;
36253;SDS011;22291;52.250;21.228;2024-03-25T12:20:16;6.17;;;5.33;;
36253;SDS011;22291;52.250;21.228;2024-03-25T12:22:43;6.12;;;5.28;;
36253;SDS011;22291;52.250;21.228;2024-03-25T12:25:10;8.18;;;5.58;;
36253;SDS011;22291;52.250;21.228;2024-03-25T12:27:37;6.12;;;5.28;;
36253;SDS011;22291;52.250;21.228;2024-03-25T12:30:09;7.47;;;5.00;;
36253;SDS011;22291;52.250;21.228;2024-03-25T12:32:39;6.33;;;5.50;;
36253;SDS011;22291;52.250;21.228;2024-03-25T12:35:11;7.85;;;6.10;;
36253;SDS011;22291;52.250;21.228;2024-03-25T12:37:41;6.62;;;5.42;;
36253;SDS011;22291;52.250;21.228;2024-03-25T12:40:10;8.20;;;5.75;;
36253;SDS011;22291;52.250;21.228;2024-03-25T12:42:52;6.65;;;5.10;;
36253;SDS011;22291;52.250;21.228;2024-03-25T12:45:19;6.72;;;5.20;;
36253;SDS011;22291;52.250;21.228;2024-03-25T12:47:47;7.30;;;5.35;;
36253;SDS011;22291;52.250;21.228;2024-03-25T12:50:13;10.50;;;6.12;;
36253;SDS011;22291;52.250;21.228;2024-03-25T12:52:40;6.83;;;5.60;;
36253;SDS011;22291;52.250;21.228;2024-03-25T12:55:06;10.72;;;6.10;;
36253;SDS011;22291;52.250;21.228;2024-03-25T12:57:32;7.75;;;5.92;;
36253;SDS011;22291;52.250;21.228;2024-03-25T13:00:01;5.80;;;5.22;;
36253;SDS011;22291;52.250;21.228;2024-03-25T13:02:30;7.58;;;5.92;;
36253;SDS011;22291;52.250;21.228;2024-03-25T13:04:57;6.90;;;6.20;;
36253;SDS011;22291;52.250;21.228;2024-03-25T13:07:24;9.28;;;5.95;;
36253;SDS011;22291;52.250;21.228;2024-03-25T13:09:50;9.05;;;6.75;;
36253;SDS011;22291;52.250;21.228;2024-03-25T13:12:16;10.30;;;7.25;;
36253;SDS011;22291;52.250;21.228;2024-03-25T13:14:43;8.08;;;6.62;;
36253;SDS011;22291;52.250;21.228;2024-03-25T13:17:09;9.65;;;6.55;;
36253;SDS011;22291;52.250;21.228;2024-03-25T13:19:35;10.03;;;7.90;;
36253;SDS011;22291;52.250;21.228;2024-03-25T13:22:01;9.43;;;7.78;;
36253;SDS011;22291;52.250;21.228;2024-03-25T13:24:29;7.17;;;6.45;;
36253;SDS011;22291;52.250;21.228;2024-03-25T13:26:55;8.30;;;6.22;;
36253;SDS011;22291;52.250;21.228;2024-03-25T13:29:22;9.58;;;7.00;;
36253;SDS011;22291;52.250;21.228;2024-03-25T13:31:48;11.60;;;7.70;;
36253;SDS011;22291;52.250;21.228;2024-03-25T13:34:16;7.47;;;6.47;;
36253;SDS011;22291;52.250;21.228;2024-03-25T13:36:43;8.50;;;6.40;;
36253;SDS011;22291;52.250;21.228;2024-03-25T13:39:09;9.20;;;7.53;;
36253;SDS011;22291;52.250;21.228;2024-03-25T13:41:37;8.38;;;6.85;;
36253;SDS011;22291;52.250;21.228;2024-03-25T13:44:03;7.85;;;6.33;;
36253;SDS011;22291;52.250;21.228;2024-03-25T13:46:30;9.65;;;7.35;;
36253;SDS011;22291;52.250;21.228;2024-03-25T13:48:56;10.30;;;7.78;;
36253;SDS011;22291;52.250;21.228;2024-03-25T13:51:23;7.95;;;5.50;;
36253;SDS011;22291;52.250;21.228;2024-03-25T13:53:49;6.53;;;4.35;;
36253;SDS011;22291;52.250;21.228;2024-03-25T13:56:15;4.78;;;3.90;;
36253;SDS011;22291;52.250;21.228;2024-03-25T13:58:42;5.30;;;3.37;;
36253;SDS011;22291;52.250;21.228;2024-03-25T14:01:08;5.12;;;3.58;;
36253;SDS011;22291;52.250;21.228;2024-03-25T14:03:35;6.05;;;3.12;;
36253;SDS011;22291;52.250;21.228;2024-03-25T14:06:02;4.40;;;3.80;;
36253;SDS011;22291;52.250;21.228;2024-03-25T14:08:31;4.22;;;3.42;;
36253;SDS011;22291;52.250;21.228;2024-03-25T14:11:01;4.70;;;3.67;;
36253;SDS011;22291;52.250;21.228;2024-03-25T14:13:29;6.35;;;5.20;;
36253;SDS011;22291;52.250;21.228;2024-03-25T14:15:55;10.00;;;6.53;;
36253;SDS011;22291;52.250;21.228;2024-03-25T14:18:22;8.28;;;6.80;;
36253;SDS011;22291;52.250;21.228;2024-03-25T14:20:49;12.75;;;8.10;;
36253;SDS011;22291;52.250;21.228;2024-03-25T14:23:18;9.45;;;8.08;;
36253;SDS011;22291;52.250;21.228;2024-03-25T14:25:45;10.75;;;8.05;;
36253;SDS011;22291;52.250;21.228;2024-03-25T14:28:11;9.75;;;7.87;;